createdAt,value
2019-02-05T00:01:06.953Z,0.90
2019-02-05T00:03:50.887Z,0.80
2019-02-05T00:06:41.268Z,0.90
2019-02-05T00:09:24.642Z,0.90
2019-02-05T00:12:14.423Z,0.90
2019-02-05T00:14:57.018Z,0.90
2019-02-05T00:17:46.859Z,0.90
2019-02-05T00:20:19.152Z,0.90
2019-02-05T00:23:10.521Z,0.90
2019-02-05T00:26:06.339Z,0.90
2019-02-05T00:29:04.427Z,0.80
2019-02-05T00:31:54.532Z,0.80
2019-02-05T00:34:37.144Z,0.70
2019-02-05T00:37:26.995Z,0.70
2019-02-05T00:40:10.619Z,0.60
2019-02-05T00:43:00.692Z,0.80
2019-02-05T00:45:43.631Z,0.90
2019-02-05T00:48:33.692Z,0.90
2019-02-05T00:51:16.332Z,0.90
2019-02-05T00:54:25.462Z,1.00
2019-02-05T00:57:27.815Z,0.90
2019-02-05T00:59:58.881Z,1.00
2019-02-05T01:05:48.453Z,0.90
2019-02-05T01:08:52.172Z,0.90
2019-02-05T01:11:42.304Z,1.10
2019-02-05T01:14:26.398Z,1.20
2019-02-05T01:17:09.591Z,1.20
2019-02-05T01:19:59.379Z,1.10
2019-02-05T01:22:42.588Z,1.10
2019-02-05T01:25:32.610Z,1.20
2019-02-05T01:28:15.703Z,1.30
2019-02-05T01:31:05.604Z,1.30
2019-02-05T01:34:08.997Z,1.20
2019-02-05T01:36:59.015Z,1.20
2019-02-05T01:39:41.573Z,1.30
2019-02-05T01:42:31.350Z,1.20
2019-02-05T01:45:35.325Z,1.20
2019-02-05T01:48:25.108Z,1.20
2019-02-05T01:51:08.064Z,1.30
2019-02-05T01:53:58.103Z,1.30
2019-02-05T01:56:41.137Z,1.20
2019-02-05T01:59:30.827Z,1.20
2019-02-05T02:02:13.565Z,1.30
2019-02-05T02:05:03.695Z,1.30
2019-02-05T02:07:46.379Z,1.20
2019-02-05T02:10:36.816Z,1.40
2019-02-05T02:13:19.356Z,1.30
2019-02-05T02:16:01.993Z,1.30
2019-02-05T02:18:52.127Z,1.40
2019-02-05T02:21:36.826Z,1.20
2019-02-05T02:24:26.869Z,1.30
2019-02-05T02:27:09.798Z,1.30
2019-02-05T02:29:59.609Z,1.20
2019-02-05T02:32:42.683Z,1.40
2019-02-05T02:35:32.480Z,1.30
2019-02-05T02:38:14.783Z,1.40
2019-02-05T02:41:23.647Z,1.40
2019-02-05T02:44:07.078Z,1.50
2019-02-05T02:46:56.852Z,1.50
2019-02-05T02:49:39.229Z,1.50
2019-02-05T02:52:29.007Z,1.60
2019-02-05T02:55:11.594Z,1.60
2019-02-05T02:58:01.652Z,1.50
2019-02-05T03:01:01.739Z,1.50
2019-02-05T03:03:45.135Z,1.60
2019-02-05T03:06:35.706Z,1.50
2019-02-05T03:09:18.917Z,1.50
2019-02-05T03:12:09.036Z,1.50
2019-02-05T03:14:51.869Z,1.40
2019-02-05T03:17:41.647Z,1.40
2019-02-05T03:20:22.306Z,1.50
2019-02-05T03:23:12.458Z,1.50
2019-02-05T03:25:55.154Z,1.50
2019-02-05T03:28:44.905Z,1.40
2019-02-05T03:31:27.238Z,1.30
2019-02-05T03:34:17.281Z,1.50
2019-02-05T03:37:21.271Z,1.50
2019-02-05T03:40:32.076Z,1.50
2019-02-05T03:43:14.821Z,1.50
2019-02-05T03:46:05.136Z,1.50
2019-02-05T03:48:49.137Z,1.50
2019-02-05T03:51:59.592Z,1.50
2019-02-05T03:55:09.094Z,1.50
2019-02-05T03:58:40.980Z,1.50
2019-02-05T04:01:25.634Z,1.60
2019-02-05T04:04:54.227Z,1.50
2019-02-05T04:07:41.369Z,1.60
2019-02-05T04:10:45.565Z,1.60
2019-02-05T04:13:56.446Z,1.70
2019-02-05T04:16:44.061Z,1.70
2019-02-05T04:19:38.993Z,1.60
2019-02-05T04:22:49.831Z,1.50
2019-02-05T04:25:36.542Z,1.60
2019-02-05T04:28:49.264Z,1.70
2019-02-05T04:31:36.499Z,1.80
2019-02-05T04:35:06.710Z,1.70
2019-02-05T04:37:51.514Z,1.80
2019-02-05T04:41:20.123Z,1.90
2019-02-05T04:44:22.334Z,1.80
2019-02-05T04:47:50.911Z,1.80
2019-02-05T04:50:37.601Z,1.90
2019-02-05T04:54:07.820Z,1.80
2019-02-05T04:56:52.556Z,1.70
2019-02-05T05:00:03.714Z,1.80
2019-02-05T05:02:48.340Z,1.80
2019-02-05T05:06:17.238Z,1.90
2019-02-05T05:09:19.645Z,1.90
2019-02-05T05:12:09.439Z,2.00
2019-02-05T05:14:50.111Z,2.00
2019-02-05T05:17:40.220Z,2.10
2019-02-05T05:20:23.569Z,2.00
2019-02-05T05:23:13.423Z,1.80
2019-02-05T05:25:56.142Z,1.70
2019-02-05T05:28:45.924Z,1.60
2019-02-05T05:31:28.800Z,1.60
2019-02-05T05:34:18.556Z,1.60
2019-02-05T05:37:07.453Z,1.40
2019-02-05T05:39:58.873Z,1.50
2019-02-05T05:43:02.245Z,1.50
2019-02-05T05:45:52.336Z,1.50
2019-02-05T05:48:22.700Z,1.40
2019-02-05T05:51:12.447Z,1.40
2019-02-05T05:53:55.327Z,1.50
2019-02-05T05:56:45.076Z,1.40
2019-02-05T05:59:28.041Z,1.50
2019-02-05T06:05:40.852Z,1.60
2019-02-05T06:08:30.705Z,1.50
2019-02-05T06:11:32.702Z,1.50
2019-02-05T06:14:22.839Z,1.60
2019-02-05T06:17:05.107Z,1.60
2019-02-05T06:19:55.162Z,1.70
2019-02-05T06:22:37.623Z,1.80
2019-02-05T06:25:27.372Z,1.80
2019-02-05T06:28:10.058Z,1.90
2019-02-05T06:30:59.835Z,1.80
2019-02-05T06:33:42.985Z,1.90
2019-02-05T06:36:32.717Z,1.90
2019-02-05T06:39:36.744Z,2.00
2019-02-05T06:45:53.774Z,2.00
2019-02-05T06:48:43.872Z,2.00
2019-02-05T06:51:33.649Z,2.00
2019-02-05T06:54:37.342Z,1.90
2019-02-05T06:57:27.472Z,1.90
2019-02-05T07:00:14.384Z,1.90
2019-02-05T07:02:55.357Z,2.10
2019-02-05T07:05:45.368Z,2.20
2019-02-05T07:08:29.503Z,2.20
2019-02-05T07:14:20.968Z,2.30
2019-02-05T07:17:11.119Z,2.40
2019-02-05T07:19:54.295Z,2.40
2019-02-05T07:22:44.353Z,2.30
2019-02-05T07:25:27.070Z,2.40
2019-02-05T07:28:17.155Z,2.40
2019-02-05T07:30:59.495Z,2.50
2019-02-05T07:33:49.266Z,2.50
2019-02-05T07:36:32.706Z,2.50
2019-02-05T07:39:22.471Z,2.50
2019-02-05T07:42:05.073Z,2.60
2019-02-05T07:44:55.209Z,2.70
2019-02-05T07:47:37.618Z,2.70
2019-02-05T07:53:56.357Z,2.90
2019-02-05T07:56:39.538Z,3.00
2019-02-05T07:59:29.336Z,3.00
2019-02-05T08:02:12.322Z,2.90
2019-02-05T08:05:02.264Z,2.90
2019-02-05T08:07:44.975Z,3.00
2019-02-05T08:10:35.410Z,3.10
2019-02-05T08:13:37.237Z,3.10
2019-02-05T08:16:27.021Z,3.10
2019-02-05T08:19:10.109Z,3.20
2019-02-05T08:25:10.406Z,3.20
2019-02-05T08:28:00.531Z,3.30
2019-02-05T08:30:44.386Z,3.30
2019-02-05T08:33:34.473Z,3.30
2019-02-05T08:36:15.207Z,3.30
2019-02-05T08:38:58.291Z,3.30
2019-02-05T08:41:48.069Z,3.30
2019-02-05T08:44:52.103Z,3.50
2019-02-05T08:47:42.450Z,3.40
2019-02-05T08:50:28.268Z,3.50
2019-02-05T08:53:18.100Z,3.60
2019-02-05T08:56:22.226Z,3.60
2019-02-05T09:02:39.823Z,3.50
2019-02-05T09:05:30.181Z,3.50
2019-02-05T09:08:20.049Z,3.50
2019-02-05T09:11:02.296Z,3.50
2019-02-05T09:13:52.085Z,3.60
2019-02-05T09:16:34.451Z,3.60
2019-02-05T09:19:24.593Z,3.60
2019-02-05T09:22:07.483Z,3.70
2019-02-05T09:24:57.612Z,3.80
2019-02-05T09:27:42.839Z,3.80
2019-02-05T09:30:52.277Z,3.80
2019-02-05T09:33:35.314Z,3.70
2019-02-05T09:36:25.724Z,3.90
2019-02-05T09:39:08.332Z,3.80
2019-02-05T09:41:58.132Z,3.80
2019-02-05T09:45:02.718Z,3.80
2019-02-05T09:48:11.867Z,3.70
2019-02-05T09:51:14.344Z,3.90
2019-02-05T09:54:23.414Z,3.90
2019-02-05T09:57:06.258Z,3.90
2019-02-05T09:59:56.336Z,3.90
2019-02-05T10:02:38.681Z,3.90
2019-02-05T10:05:49.508Z,4.10
2019-02-05T10:08:30.472Z,4.10
2019-02-05T10:11:13.189Z,4.20
2019-02-05T10:14:03.216Z,4.10
2019-02-05T10:16:48.118Z,4.20
2019-02-05T10:23:04.659Z,4.50
2019-02-05T10:25:54.437Z,4.50
2019-02-05T10:28:58.079Z,4.50
2019-02-05T10:31:48.166Z,4.50
2019-02-05T10:34:34.418Z,4.60
2019-02-05T10:40:51.084Z,4.60
2019-02-05T10:43:41.238Z,4.40
2019-02-05T10:46:31.034Z,4.40
2019-02-05T10:49:15.805Z,4.40
2019-02-05T10:52:06.247Z,4.40
2019-02-05T10:54:49.064Z,4.60
2019-02-05T10:57:39.411Z,4.40
2019-02-05T11:00:26.085Z,4.30
2019-02-05T11:03:16.116Z,4.40
2019-02-05T11:06:01.041Z,4.50
2019-02-05T11:08:51.111Z,4.40
2019-02-05T11:11:34.367Z,4.60
2019-02-05T11:14:24.420Z,4.50
2019-02-05T11:17:07.307Z,4.50
2019-02-05T11:19:57.122Z,4.60
2019-02-05T11:22:40.289Z,4.60
2019-02-05T11:25:30.365Z,4.60
2019-02-05T11:28:15.288Z,4.60
2019-02-05T11:31:05.430Z,4.70
2019-02-05T11:33:50.230Z,4.70
2019-02-05T11:36:40.125Z,4.80
2019-02-05T11:39:23.145Z,4.80
2019-02-05T11:42:06.612Z,4.90
2019-02-05T11:44:56.407Z,4.80
2019-02-05T11:47:41.118Z,4.70
2019-02-05T11:50:52.178Z,4.70
2019-02-05T11:53:35.188Z,4.80
2019-02-05T11:56:25.290Z,4.80
2019-02-05T11:59:06.079Z,5.00
2019-02-05T12:01:56.151Z,5.10
2019-02-05T12:04:59.724Z,5.10
2019-02-05T12:07:50.946Z,5.30
2019-02-05T12:10:54.527Z,5.30
2019-02-05T12:13:44.355Z,5.40
2019-02-05T12:16:27.586Z,5.40
2019-02-05T12:22:19.727Z,5.20
2019-02-05T12:25:31.160Z,5.10
2019-02-05T12:28:13.950Z,5.30
2019-02-05T12:31:03.741Z,5.10
2019-02-05T12:33:46.282Z,5.30
2019-02-05T12:36:36.050Z,5.30
2019-02-05T12:39:19.284Z,5.10
2019-02-05T12:42:09.342Z,5.30
2019-02-05T12:44:53.155Z,5.30
2019-02-05T12:51:09.267Z,5.10
2019-02-05T12:53:59.056Z,5.20
2019-02-05T12:56:48.857Z,5.10
2019-02-05T12:59:31.312Z,5.40
2019-02-05T13:02:21.506Z,5.50
2019-02-05T13:05:23.201Z,5.40
2019-02-05T13:08:12.982Z,5.40
2019-02-05T13:10:57.244Z,5.40
2019-02-05T13:14:06.692Z,5.30
2019-02-05T13:16:49.329Z,5.70
2019-02-05T13:19:39.383Z,5.70
2019-02-05T13:22:41.114Z,5.60
2019-02-05T13:25:52.217Z,5.60
2019-02-05T13:28:35.447Z,5.50
2019-02-05T13:31:25.791Z,5.30
2019-02-05T13:34:08.559Z,5.40
2019-02-05T13:36:58.457Z,5.30
2019-02-05T13:39:41.015Z,5.20
2019-02-05T13:42:30.848Z,5.30
2019-02-05T13:45:13.768Z,5.20
2019-02-05T13:51:32.323Z,5.50
2019-02-05T13:54:22.388Z,5.40
2019-02-05T13:57:05.205Z,5.40
2019-02-05T13:59:55.075Z,5.50
2019-02-05T14:02:38.058Z,5.30
2019-02-05T14:05:29.454Z,5.20
2019-02-05T14:08:12.213Z,5.20
2019-02-05T14:11:02.376Z,5.20
2019-02-05T14:14:06.062Z,5.00
2019-02-05T14:16:55.850Z,5.10
2019-02-05T14:19:38.639Z,5.00
2019-02-05T14:22:28.399Z,5.00
2019-02-05T14:25:30.476Z,5.00
2019-02-05T14:28:20.262Z,5.10
2019-02-05T14:31:05.102Z,5.00
2019-02-05T14:33:54.882Z,5.00
2019-02-05T14:36:37.728Z,5.00
2019-02-05T14:39:27.520Z,5.20
2019-02-05T14:42:09.901Z,5.20
2019-02-05T14:44:59.691Z,5.00
2019-02-05T14:47:42.535Z,5.00
2019-02-05T14:50:53.616Z,5.00
2019-02-05T14:53:36.770Z,5.10
2019-02-05T14:56:26.967Z,5.10
2019-02-05T14:59:09.517Z,5.20
2019-02-05T15:01:59.298Z,5.10
2019-02-05T15:04:40.285Z,5.00
2019-02-05T15:07:11.369Z,5.10
2019-02-05T15:09:55.317Z,5.10
2019-02-05T15:12:45.413Z,5.20
2019-02-05T15:15:29.677Z,5.20
2019-02-05T15:18:19.826Z,5.10
2019-02-05T15:21:02.739Z,5.10
2019-02-05T15:27:19.766Z,5.00
2019-02-05T15:30:31.314Z,5.00
2019-02-05T15:36:37.928Z,5.00
2019-02-05T15:39:20.853Z,5.10
2019-02-05T15:42:10.631Z,5.10
2019-02-05T15:44:53.893Z,4.90
2019-02-05T15:47:43.710Z,4.90
2019-02-05T15:50:26.110Z,5.10
2019-02-05T15:53:35.311Z,5.00
2019-02-05T15:56:18.133Z,5.00
2019-02-05T15:59:07.915Z,5.10
2019-02-05T16:01:50.964Z,5.10
2019-02-05T16:04:59.841Z,5.10
2019-02-05T16:07:42.355Z,5.10
2019-02-05T16:10:32.513Z,5.10
2019-02-05T16:13:36.704Z,5.20
2019-02-05T16:16:26.527Z,5.10
2019-02-05T16:19:29.904Z,5.10
2019-02-05T16:22:12.696Z,5.20
2019-02-05T16:28:29.891Z,5.00
2019-02-05T16:31:20.004Z,5.00
2019-02-05T16:34:02.515Z,5.00
2019-02-05T16:36:52.581Z,5.00
2019-02-05T16:39:35.820Z,5.00
2019-02-05T16:42:25.613Z,5.00
2019-02-05T16:45:09.553Z,5.00
2019-02-05T16:47:59.635Z,5.00
2019-02-05T16:50:47.791Z,5.10
2019-02-05T16:53:39.710Z,5.10
2019-02-05T16:56:22.284Z,5.10
2019-02-05T16:59:12.086Z,5.10
2019-02-05T17:01:57.118Z,5.10
2019-02-05T17:04:46.775Z,5.00
2019-02-05T17:07:29.400Z,5.00
2019-02-05T17:10:40.164Z,5.00
2019-02-05T17:13:23.074Z,5.00
2019-02-05T17:16:12.859Z,5.20
2019-02-05T17:18:55.400Z,5.00
2019-02-05T17:21:38.412Z,5.00
2019-02-05T17:24:28.612Z,5.10
2019-02-05T17:27:11.612Z,5.00
2019-02-05T17:30:01.413Z,5.10
2019-02-05T17:32:42.066Z,5.10
2019-02-05T17:35:24.343Z,5.00
2019-02-05T17:38:14.464Z,5.10
2019-02-05T17:40:57.476Z,5.10
2019-02-05T17:43:50.226Z,5.10
2019-02-05T17:46:50.894Z,5.10
2019-02-05T17:49:40.652Z,5.00
2019-02-05T17:52:23.485Z,5.00
2019-02-05T17:55:34.306Z,5.10
2019-02-05T17:58:16.761Z,5.00
2019-02-05T18:04:28.918Z,5.00
2019-02-05T18:07:18.998Z,5.00
2019-02-05T18:10:30.183Z,5.00
2019-02-05T18:13:14.394Z,5.00
2019-02-05T18:16:25.250Z,5.00
2019-02-05T18:19:08.325Z,5.00
2019-02-05T18:22:17.331Z,4.90
2019-02-05T18:25:00.471Z,5.00
2019-02-05T18:27:51.214Z,5.00
2019-02-05T18:30:36.897Z,5.00
2019-02-05T18:33:26.978Z,5.10
2019-02-05T18:36:11.720Z,5.00
2019-02-05T18:39:21.167Z,5.00
2019-02-05T18:42:03.761Z,4.80
2019-02-05T18:45:12.659Z,4.90
2019-02-05T18:47:56.178Z,4.90
2019-02-05T18:50:46.685Z,4.90
2019-02-05T18:53:31.945Z,4.80
2019-02-05T18:59:16.767Z,5.00
2019-02-05T19:01:47.339Z,4.90
2019-02-05T19:04:18.210Z,4.90
2019-02-05T19:06:48.835Z,4.80
2019-02-05T19:09:19.242Z,4.70
2019-02-05T19:11:49.984Z,4.60
2019-02-05T19:14:23.200Z,4.60
2019-02-05T19:16:53.021Z,4.60
2019-02-05T19:19:23.376Z,4.60
2019-02-05T19:21:53.736Z,4.60
2019-02-05T19:24:31.482Z,4.50
2019-02-05T19:27:01.831Z,4.50
2019-02-05T19:29:32.730Z,4.50
2019-02-05T19:32:03.442Z,4.50
2019-02-05T19:34:33.805Z,4.50
2019-02-05T19:37:04.155Z,4.40
2019-02-05T19:39:34.523Z,4.40
2019-02-05T19:42:05.152Z,4.40
2019-02-05T19:44:37.264Z,4.50
2019-02-05T19:47:07.992Z,4.40
2019-02-05T19:49:38.391Z,4.50
2019-02-05T19:52:09.350Z,4.40
2019-02-05T19:54:39.713Z,4.40
2019-02-05T19:57:10.695Z,4.30
2019-02-05T19:59:41.698Z,4.30
2019-02-05T20:02:12.594Z,4.20
2019-02-05T20:04:43.354Z,4.30
2019-02-05T20:07:14.292Z,4.20
2019-02-05T20:09:44.647Z,4.30
2019-02-05T20:12:15.005Z,4.20
2019-02-05T20:14:45.965Z,4.20
2019-02-05T20:17:16.749Z,4.20
2019-02-05T20:19:47.079Z,4.10
2019-02-05T20:22:17.429Z,4.20
2019-02-05T20:24:47.805Z,4.30
2019-02-05T20:27:18.420Z,4.30
2019-02-05T20:29:49.384Z,4.30
2019-02-05T20:32:19.958Z,4.30
2019-02-05T20:34:50.584Z,4.30
2019-02-05T20:37:20.918Z,4.20
2019-02-05T20:39:51.653Z,4.20
2019-02-05T20:42:22.029Z,4.20
2019-02-05T20:44:52.563Z,4.20
2019-02-05T20:47:23.295Z,4.20
2019-02-05T20:49:53.647Z,4.20
2019-02-05T20:52:24.127Z,4.20
2019-02-05T20:54:54.728Z,4.20
2019-02-05T20:57:25.094Z,4.20
2019-02-05T20:59:55.791Z,4.20
2019-02-05T21:02:26.905Z,4.30
2019-02-05T21:04:57.495Z,4.30
2019-02-05T21:07:27.828Z,4.20
2019-02-05T21:09:58.586Z,4.20
2019-02-05T21:12:29.281Z,4.20
2019-02-05T21:14:59.887Z,4.10
2019-02-05T21:17:30.810Z,4.20
2019-02-05T21:20:01.621Z,4.10
2019-02-05T21:22:32.052Z,4.20
2019-02-05T21:25:02.726Z,4.20
2019-02-05T21:27:33.616Z,4.30
2019-02-05T21:30:09.960Z,4.20
2019-02-05T21:32:40.313Z,4.30
2019-02-05T21:35:11.063Z,4.30
2019-02-05T21:37:41.463Z,4.30
2019-02-05T21:40:25.770Z,4.30
2019-02-05T21:42:56.178Z,4.30
2019-02-05T21:45:31.430Z,4.30
2019-02-05T21:48:01.760Z,4.30
2019-02-05T21:50:32.409Z,4.30
2019-02-05T21:53:03.574Z,4.20
2019-02-05T21:55:34.364Z,4.40
2019-02-05T21:58:05.346Z,4.40
2019-02-05T22:00:38.704Z,4.30
2019-02-05T22:03:09.046Z,4.30
2019-02-05T22:05:39.403Z,4.30
2019-02-05T22:08:10.058Z,4.20
2019-02-05T22:10:40.543Z,4.20
2019-02-05T22:13:11.246Z,4.20
2019-02-05T22:15:41.601Z,4.20
2019-02-05T22:18:12.431Z,4.30
2019-02-05T22:20:42.831Z,4.30
2019-02-05T22:23:14.234Z,4.30
2019-02-05T22:25:45.145Z,4.30
2019-02-05T22:28:16.397Z,4.30
2019-02-05T22:30:47.106Z,4.30
2019-02-05T22:33:17.439Z,4.20
2019-02-05T22:35:47.784Z,4.20
2019-02-05T22:38:18.161Z,4.20
2019-02-05T22:40:48.527Z,4.20
2019-02-05T22:43:19.017Z,4.30
2019-02-05T22:45:49.349Z,4.30
2019-02-05T22:48:19.692Z,4.30
2019-02-05T22:50:50.380Z,4.40
2019-02-05T22:53:21.042Z,4.40
2019-02-05T22:55:51.721Z,4.40
2019-02-05T22:58:22.508Z,4.40
2019-02-05T23:01:18.370Z,4.20
2019-02-05T23:03:54.996Z,4.30
2019-02-05T23:06:48.043Z,4.30
2019-02-05T23:09:35.748Z,4.20
2019-02-05T23:12:22.791Z,4.20
2019-02-05T23:15:01.534Z,4.20
2019-02-05T23:17:32.154Z,4.20
2019-02-05T23:20:02.799Z,4.10
2019-02-05T23:22:33.158Z,4.20
2019-02-05T23:25:04.593Z,4.20
2019-02-05T23:27:35.220Z,4.10
2019-02-05T23:30:16.507Z,4.10
2019-02-05T23:32:46.858Z,4.10
2019-02-05T23:35:17.229Z,4.10
2019-02-05T23:37:47.889Z,4.10
2019-02-05T23:40:18.495Z,4.10
2019-02-05T23:42:48.831Z,4.10
2019-02-05T23:45:19.498Z,4.10
2019-02-05T23:47:50.107Z,4.00
2019-02-05T23:50:20.437Z,4.00
2019-02-05T23:52:51.177Z,4.00
2019-02-05T23:55:22.140Z,4.10
2019-02-05T23:57:52.753Z,4.10
